Ana Sayfa
METAR-TAF:

METAR-TAF

Havaalanları :

Indianapolis, Indiana, Amerika Birleşik Devletleri

Enlem: 39-43-30N, Boylam: 086-16-55W, yükseklik: 243 m

Güncel hava durumu gözlemi

Rapor saat 18:54 UTC de 1 saat ve 0 dakika önce yapıldı.
Rüzgar batı/güneybatıdan 8 kt
Sıcaklık -10°C
Nem 72%
Basınç 1034 hPa
Görüş mesafesi: 16.1 km
Açık gökyüzü

METAR: KIND 171854Z 24008KT 10SM CLR M10/M14 A3054 RMK AO2 SLP359 T11001144

Saat: 14:54 (19:54 UTC)

Tahmin

Rapor saat 17:20 UTC de 2 saat ve 34 dakika önce yapıldı.
Ayın 17'si saat 18 UTC'den ayın 18'si saat 24 UTC'ye kadar geçerli Tahmin
Rüzgar güneybatıdan 8 kt
Görüş mesafesi: 10 km
Açık gökyüzü

TAF: KIND 171720Z 1718/1824 23008KT P6SM SKC

4.000'den fazla havaalanı için hava durumu gözlemleri ve tahminleri (METAR ve TAF raporları).

Kullanılabilir istasyonlar harita üzerinde sarı ve kırmızı noktalarla gösterilir.

İstasyonun adını görmek için fareyi noktanın üzerinde gezdirin.

Sonrasında hava gözlem ve tahminlerini görmek için tıklayın.

Haritayı değiştirmek için: yaklaştırmak için siyah artı işaretli yeşil düğmeye ve uzaklaştırmak için de eksi işaretli düğmeye hızla tıklayın; bitişik haritalar için yeşil okları kullanın.


METAR-TAF: